Time;durP1;ratioP1;P1;durP2;ratioP2;P2;SDS_P1;SDS_P2;PMS_P1;PMS_P2;Temp;Humidity;BMP_temperature;BMP_pressure;BME280_temperature;BME280_humidity;BME280_pressure;Samples;Min_cycle;Max_cycle;Signal;HPM_P1;HPM_P2
2023/07/31 00:00:41;;;;;;;5.80;1.70;;;;;;;19.68;100.00;96267.63;5057036;28;20034;-81
2023/07/31 00:03:06;;;;;;;4.43;1.60;;;;;;;19.71;100.00;96266.38;5068068;28;20032;-80
2023/07/31 00:05:32;;;;;;;6.95;2.00;;;;;;;19.39;100.00;96261.03;5044275;28;20031;-81
2023/07/31 00:07:57;;;;;;;7.30;1.97;;;;;;;18.95;100.00;96269.84;5069628;28;20024;-81
2023/07/31 00:10:23;;;;;;;8.00;2.30;;;;;;;18.81;100.00;96253.91;5053736;28;20383;-81
2023/07/31 00:12:48;;;;;;;6.70;1.85;;;;;;;19.14;100.00;96254.78;5065842;28;20031;-81
2023/07/31 00:15:14;;;;;;;6.70;2.10;;;;;;;19.10;100.00;96261.59;5049884;28;20028;-81
2023/07/31 00:17:40;;;;;;;3.90;1.73;;;;;;;18.73;100.00;96256.78;5045547;28;20089;-81
2023/07/31 00:20:21;;;;;;;6.50;1.70;;;;;;;19.04;100.00;96253.38;5039719;28;20093;-80
2023/07/31 00:22:47;;;;;;;4.78;1.58;;;;;;;18.99;100.00;96255.88;5040214;28;20588;-81
2023/07/31 00:25:12;;;;;;;2.80;1.30;;;;;;;19.25;100.00;96254.13;5046496;28;20041;-81
2023/07/31 00:27:38;;;;;;;4.10;1.60;;;;;;;19.29;100.00;96255.34;5067143;28;20043;-81
2023/07/31 00:30:04;;;;;;;5.33;1.80;;;;;;;19.19;100.00;96247.00;5061239;28;20403;-82
2023/07/31 00:32:32;;;;;;;6.33;1.97;;;;;;;19.23;100.00;96241.00;5047789;28;20039;-81
2023/07/31 00:34:59;;;;;;;5.27;1.57;;;;;;;18.72;100.00;96244.50;5064635;28;20532;-81
2023/07/31 00:37:24;;;;;;;7.53;2.10;;;;;;;18.93;100.00;96246.06;5059143;28;20025;-81
2023/07/31 00:39:50;;;;;;;5.70;1.83;;;;;;;19.06;100.00;96245.19;5051422;28;20023;-81
2023/07/31 00:42:15;;;;;;;9.87;1.80;;;;;;;19.05;100.00;96249.72;5047497;28;20028;-81
2023/07/31 00:44:41;;;;;;;8.37;1.93;;;;;;;18.89;100.00;96244.03;5045914;28;20058;-81
2023/07/31 00:47:06;;;;;;;4.87;1.73;;;;;;;19.03;100.00;96245.63;5049595;28;20016;-81
2023/07/31 00:49:32;;;;;;;6.57;3.10;;;;;;;19.04;100.00;96240.06;5060718;28;20016;-81
2023/07/31 00:52:06;;;;;;;23.30;14.43;;;;;;;18.98;100.00;96245.41;5051072;28;20025;-80
2023/07/31 00:54:31;;;;;;;9.93;5.72;;;;;;;18.98;100.00;96251.59;5051461;28;20025;-81
2023/07/31 00:56:57;;;;;;;5.67;1.90;;;;;;;18.87;100.00;96246.91;5055014;28;20143;-81
2023/07/31 00:59:23;;;;;;;7.33;1.53;;;;;;;18.90;100.00;96254.47;5044743;28;20498;-81
2023/07/31 01:01:50;;;;;;;5.67;1.90;;;;;;;18.75;100.00;96249.41;5049683;28;20494;-81
2023/07/31 01:04:15;;;;;;;5.30;2.00;;;;;;;18.77;100.00;96251.88;5069111;28;20032;-81
2023/07/31 01:07:11;;;;;;;3.20;1.50;;;;;;;18.76;100.00;96252.91;5047530;28;20035;-81
2023/07/31 01:09:43;;;;;;;4.47;1.67;;;;;;;18.73;100.00;96248.81;5051062;28;20780;-81
2023/07/31 01:12:14;;;;;;;4.53;2.00;;;;;;;18.61;100.00;96253.94;5048322;28;20789;-81
2023/07/31 01:14:40;;;;;;;6.00;1.80;;;;;;;18.64;100.00;96246.53;5066548;28;20017;-81
2023/07/31 01:17:05;;;;;;;5.57;1.57;;;;;;;18.65;100.00;96243.69;5064085;28;20023;-82
2023/07/31 01:19:31;;;;;;;4.57;1.50;;;;;;;18.66;100.00;96244.50;5069081;28;20025;-81
2023/07/31 01:22:04;;;;;;;6.13;2.07;;;;;;;18.59;100.00;96249.84;5067834;28;20032;-81
2023/07/31 01:25:08;;;;;;;6.57;1.90;;;;;;;18.57;100.00;96246.56;5068730;28;20046;-81
2023/07/31 01:27:35;;;;;;;;;;;;;;;18.56;100.00;96237.75;5045927;28;20127;-81
2023/07/31 01:30:22;;;;;;;6.27;2.40;;;;;;;18.40;100.00;96240.88;5068574;28;20381;-81
2023/07/31 01:32:48;;;;;;;4.97;2.20;;;;;;;18.40;100.00;96240.06;5049822;28;20025;-81
2023/07/31 01:35:15;;;;;;;6.17;2.03;;;;;;;18.45;100.00;96235.75;5068496;28;20032;-81
2023/07/31 01:37:40;;;;;;;5.90;1.80;;;;;;;18.35;100.00;96230.03;5050399;28;20458;-81
2023/07/31 01:40:07;;;;;;;6.67;1.77;;;;;;;18.14;100.00;96226.59;5053505;28;20032;-82
2023/07/31 01:42:32;;;;;;;8.73;3.00;;;;;;;18.09;100.00;96223.72;5063081;28;20082;-81
2023/07/31 01:44:58;;;;;;;6.33;2.43;;;;;;;18.16;100.00;96213.06;5042832;28;20029;-81
2023/07/31 01:47:23;;;;;;;4.57;1.63;;;;;;;18.22;100.00;96212.25;5041641;28;20037;-81
2023/07/31 01:49:49;;;;;;;5.33;1.93;;;;;;;17.87;100.00;96214.31;5062876;28;20043;-81
2023/07/31 01:52:15;;;;;;;7.50;2.40;;;;;;;18.11;100.00;96210.22;5058750;28;20059;-81
2023/07/31 01:54:41;;;;;;;9.00;2.00;;;;;;;18.16;100.00;96213.06;5036668;28;20115;-81
2023/07/31 01:57:07;;;;;;;6.37;2.00;;;;;;;18.15;100.00;96206.13;5042144;28;20074;-81
2023/07/31 01:59:41;;;;;;;5.40;1.83;;;;;;;18.19;100.00;96203.84;5060161;28;20024;-81
2023/07/31 02:02:06;;;;;;;8.43;1.70;;;;;;;17.94;100.00;96201.84;5066557;28;20032;-82
2023/07/31 02:04:32;;;;;;;4.90;1.67;;;;;;;18.08;100.00;96202.66;5059844;28;20090;-81
2023/07/31 02:06:58;;;;;;;4.50;2.20;;;;;;;17.97;100.00;96196.09;5061014;28;20037;-81
2023/07/31 02:09:23;;;;;;;4.03;1.77;;;;;;;17.81;100.00;96199.19;5054773;28;20036;-80
2023/07/31 02:11:49;;;;;;;6.53;2.10;;;;;;;17.95;100.00;96198.16;5049239;28;20493;-81
2023/07/31 02:14:14;;;;;;;7.17;1.67;;;;;;;17.87;100.00;96188.56;5052301;28;20572;-81
2023/07/31 02:16:40;;;;;;;7.13;2.33;;;;;;;17.72;100.00;96182.59;5051977;28;20602;-81
2023/07/31 02:19:05;;;;;;;4.97;1.87;;;;;;;17.73;100.00;96188.72;5050967;28;20024;-80
2023/07/31 02:21:34;;;;;;;6.07;1.90;;;;;;;17.97;100.00;96185.44;5049146;28;20033;-81
2023/07/31 02:24:00;;;;;;;3.90;1.60;;;;;;;18.12;100.00;96182.56;5053519;28;20012;-81
2023/07/31 02:26:26;;;;;;;6.20;1.90;;;;;;;17.82;100.00;96183.00;5053015;28;20051;-81
2023/07/31 02:28:51;;;;;;;6.53;1.90;;;;;;;18.07;100.00;96187.69;5052789;28;20060;-81
2023/07/31 02:31:22;;;;;;;6.60;2.27;;;;;;;17.92;100.00;96189.78;5064143;28;20036;-81
2023/07/31 02:33:47;;;;;;;4.27;2.23;;;;;;;18.22;100.00;96190.94;5063449;28;20051;-81
2023/07/31 02:36:14;;;;;;;4.53;1.77;;;;;;;18.00;100.00;96182.38;5048971;28;20009;-81
2023/07/31 02:38:44;;;;;;;7.87;2.57;;;;;;;18.00;100.00;96187.69;5048958;28;20363;-80
2023/07/31 02:41:09;;;;;;;4.73;1.83;;;;;;;18.12;100.00;96187.91;5060553;28;20020;-81
2023/07/31 02:43:35;;;;;;;7.03;1.80;;;;;;;17.82;100.00;96184.88;5050733;28;20083;-80
2023/07/31 02:46:00;;;;;;;4.73;1.93;;;;;;;17.72;100.00;96179.91;5033500;28;20029;-80
2023/07/31 02:48:26;;;;;;;8.60;1.93;;;;;;;17.85;100.00;96185.25;5058926;28;20027;-81
2023/07/31 02:50:51;;;;;;;5.83;2.17;;;;;;;17.74;100.00;96179.69;5047132;28;20028;-80
2023/07/31 02:53:17;;;;;;;5.20;1.70;;;;;;;17.54;100.00;96172.56;5051479;28;20024;-80
2023/07/31 02:55:42;;;;;;;8.13;1.90;;;;;;;17.71;100.00;96169.50;5069380;28;20027;-80
2023/07/31 02:58:08;;;;;;;7.97;2.03;;;;;;;17.74;100.00;96177.03;5062322;28;20070;-81
2023/07/31 03:00:34;;;;;;;4.67;2.50;;;;;;;17.99;100.00;96175.44;5052219;28;20027;-81
2023/07/31 03:02:59;;;;;;;5.30;2.13;;;;;;;18.11;100.00;96170.31;5038590;28;20021;-81
2023/07/31 03:05:25;;;;;;;5.37;1.80;;;;;;;18.21;100.00;96167.19;5062458;28;20021;-80
2023/07/31 03:07:54;;;;;;;6.10;1.67;;;;;;;18.23;100.00;96163.28;5067939;28;20444;-81
2023/07/31 03:10:20;;;;;;;5.07;1.73;;;;;;;18.10;100.00;96169.47;5051853;28;20039;-81
2023/07/31 03:12:48;;;;;;;6.47;2.00;;;;;;;17.63;100.00;96162.53;5063910;28;20021;-80
2023/07/31 03:15:14;;;;;;;4.17;1.43;;;;;;;17.47;100.00;96161.13;5041268;28;20025;-81
2023/07/31 03:17:39;;;;;;;3.77;1.47;;;;;;;17.67;100.00;96159.28;5046006;28;20100;-81
2023/07/31 03:20:05;;;;;;;6.93;1.80;;;;;;;17.82;100.00;96155.59;5046561;28;20386;-80
2023/07/31 03:22:31;;;;;;;5.90;2.27;;;;;;;17.83;100.00;96150.06;5045980;28;20020;-80
2023/07/31 03:25:00;;;;;;;6.97;1.93;;;;;;;17.65;100.00;96150.66;5063180;28;20043;-80
2023/07/31 03:27:25;;;;;;;5.87;1.83;;;;;;;17.76;100.00;96148.41;5054050;28;20021;-81
2023/07/31 03:29:51;;;;;;;7.97;1.83;;;;;;;17.77;100.00;96150.91;5049495;28;20039;-81
2023/07/31 03:32:17;;;;;;;7.00;1.90;;;;;;;17.66;100.00;96152.28;5043453;28;20099;-80
2023/07/31 03:34:42;;;;;;;3.27;1.53;;;;;;;17.56;100.00;96146.56;5068839;28;20055;-81
2023/07/31 03:37:09;;;;;;;6.17;1.97;;;;;;;17.77;100.00;96144.75;5059961;28;20724;-80
2023/07/31 03:39:35;;;;;;;5.67;1.70;;;;;;;17.91;100.00;96154.38;5045417;28;20711;-81
2023/07/31 03:42:09;;;;;;;4.37;1.80;;;;;;;17.89;100.00;96159.88;5051317;28;20021;-80
2023/07/31 03:44:34;;;;;;;5.33;2.10;;;;;;;17.63;100.00;96158.03;5047071;28;20063;-80
2023/07/31 03:47:00;;;;;;;5.13;2.60;;;;;;;17.67;100.00;96153.94;5050524;28;20422;-81
2023/07/31 03:49:27;;;;;;;6.33;1.57;;;;;;;17.72;100.00;96152.50;5052942;28;20029;-81
2023/07/31 03:51:54;;;;;;;5.33;1.53;;;;;;;18.06;100.00;96151.47;5068050;28;20024;-82
2023/07/31 03:54:19;;;;;;;5.40;1.77;;;;;;;17.92;100.00;96161.31;5051504;28;20055;-81
2023/07/31 03:56:45;;;;;;;6.83;2.03;;;;;;;17.84;100.00;96158.84;5046722;28;20059;-81
2023/07/31 03:59:10;;;;;;;4.87;1.80;;;;;;;18.00;100.00;96158.41;5041373;28;20025;-80
2023/07/31 04:01:36;;;;;;;6.47;2.77;;;;;;;17.79;100.00;96158.66;5042728;28;20024;-81
2023/07/31 04:04:02;;;;;;;5.07;2.20;;;;;;;17.67;100.00;96163.75;5052662;28;20025;-81
2023/07/31 04:06:28;;;;;;;8.33;2.43;;;;;;;18.11;100.00;96167.63;5055731;28;20047;-81
2023/07/31 04:08:55;;;;;;;7.43;1.73;;;;;;;18.10;100.00;96164.13;5062434;28;20021;-81
2023/07/31 04:11:21;;;;;;;5.93;2.23;;;;;;;18.26;100.00;96160.22;5049531;28;20119;-81
2023/07/31 04:13:46;;;;;;;6.47;1.83;;;;;;;18.37;100.00;96166.72;5058027;28;20027;-81
2023/07/31 04:16:12;;;;;;;4.10;2.07;;;;;;;18.37;100.00;96166.72;5048193;28;20020;-81
2023/07/31 04:18:47;;;;;;;4.43;1.80;;;;;;;18.45;100.00;96163.03;5042630;28;20078;-81
2023/07/31 04:21:13;;;;;;;4.83;1.70;;;;;;;18.22;100.00;96155.53;5044639;28;20111;-81
2023/07/31 04:23:42;;;;;;;6.10;1.83;;;;;;;18.26;100.00;96154.06;5040086;28;21417;-81
2023/07/31 04:26:07;;;;;;;5.70;1.80;;;;;;;18.39;100.00;96154.03;5056605;28;20016;-81
2023/07/31 04:28:33;;;;;;;5.90;1.80;;;;;;;18.46;100.00;96160.16;5051899;28;20021;-81
2023/07/31 04:30:58;;;;;;;4.37;1.93;;;;;;;18.51;100.00;96151.53;5054189;28;20030;-81
2023/07/31 04:33:24;;;;;;;6.00;2.03;;;;;;;18.55;100.00;96153.56;5065402;28;20017;-80
2023/07/31 04:36:06;;;;;;;5.60;1.90;;;;;;;18.61;100.00;96152.72;5064301;28;20600;-81
2023/07/31 04:38:31;;;;;;;4.30;1.80;;;;;;;18.68;100.00;96147.38;5066472;28;20046;-81
2023/07/31 04:40:57;;;;;;;5.07;2.03;;;;;;;18.77;100.00;96151.44;5060364;28;20521;-81
2023/07/31 04:43:22;;;;;;;4.37;1.73;;;;;;;18.95;100.00;96142.75;5043487;28;20386;-81
2023/07/31 04:45:49;;;;;;;4.53;1.90;;;;;;;18.73;100.00;96146.75;5050884;28;20066;-81
2023/07/31 04:48:18;;;;;;;4.33;1.90;;;;;;;18.90;100.00;96142.56;5049418;28;20040;-81
2023/07/31 04:50:45;;;;;;;6.97;1.73;;;;;;;18.78;100.00;96130.97;5058652;28;20157;-81
2023/07/31 04:53:17;;;;;;;5.90;2.00;;;;;;;18.76;100.00;96125.03;5061162;28;20024;-81
2023/07/31 04:55:43;;;;;;;4.20;1.60;;;;;;;18.93;100.00;96134.16;5052687;28;20021;-81
2023/07/31 04:58:08;;;;;;;5.40;1.67;;;;;;;18.56;100.00;96136.56;5071674;28;20036;-81
2023/07/31 05:00:34;;;;;;;5.43;1.80;;;;;;;18.73;100.00;96138.75;5071943;28;20062;-81
2023/07/31 05:02:59;;;;;;;5.03;1.70;;;;;;;19.03;100.00;96129.16;5053255;28;20074;-81
2023/07/31 05:05:37;;;;;;;5.53;1.97;;;;;;;18.65;100.00;96137.13;5070768;28;20024;-81
2023/07/31 05:08:03;;;;;;;6.77;2.10;;;;;;;18.86;100.00;96133.38;5058050;28;20025;-81
2023/07/31 05:10:28;;;;;;;4.87;2.03;;;;;;;19.07;100.00;96135.69;5058895;28;20028;-80
2023/07/31 05:12:56;;;;;;;5.33;1.80;;;;;;;19.26;100.00;96143.78;5046093;28;20429;-80
2023/07/31 05:15:29;;;;;;;5.60;2.00;;;;;;;19.21;100.00;96143.59;5063416;28;20096;-81
2023/07/31 05:17:54;;;;;;;8.48;2.05;;;;;;;18.89;100.00;96143.59;5047058;28;20020;-80
2023/07/31 05:20:23;;;;;;;7.33;2.00;;;;;;;18.80;100.00;96139.53;5060859;28;20085;-80
2023/07/31 05:22:48;;;;;;;5.72;2.00;;;;;;;18.93;100.00;96144.81;5065929;28;20021;-80
2023/07/31 05:25:14;;;;;;;4.80;1.87;;;;;;;18.88;100.00;96141.13;5051171;28;20401;-81
2023/07/31 05:28:01;;;;;;;5.87;1.80;;;;;;;19.40;100.00;96139.97;5062404;28;20040;-81
2023/07/31 05:30:34;;;;;;;4.00;2.07;;;;;;;19.19;100.00;96145.69;5066243;28;20031;-81
2023/07/31 05:32:59;;;;;;;4.85;2.03;;;;;;;19.57;100.00;96140.25;5063242;28;20044;-80
2023/07/31 05:35:25;;;;;;;5.57;2.07;;;;;;;19.26;100.00;96135.78;5045703;28;20029;-80
2023/07/31 05:37:51;;;;;;;6.55;2.08;;;;;;;19.64;100.00;96124.22;5063869;28;20474;-81
2023/07/31 05:40:16;;;;;;;6.13;2.17;;;;;;;19.72;100.00;96137.31;5068467;28;20644;-80
2023/07/31 05:42:42;;;;;;;7.35;2.45;;;;;;;19.81;100.00;96133.31;5055114;28;20751;-79
2023/07/31 05:45:08;;;;;;;7.63;2.05;;;;;;;19.87;100.00;96135.09;5059393;28;20354;-80
2023/07/31 05:47:33;;;;;;;7.10;1.83;;;;;;;19.95;100.00;96137.50;5044201;28;20021;-80
2023/07/31 05:49:59;;;;;;;7.05;2.13;;;;;;;19.67;100.00;96134.47;5069973;28;20028;-79
2023/07/31 05:52:25;;;;;;;9.18;2.20;;;;;;;19.94;100.00;96135.84;5046840;28;20032;-79
2023/07/31 05:54:53;;;;;;;5.55;2.15;;;;;;;20.02;100.00;96130.22;5066056;28;20028;-79
2023/07/31 05:57:23;;;;;;;7.38;1.70;;;;;;;19.95;100.00;96140.16;5053095;28;20039;-79
2023/07/31 05:59:48;;;;;;;7.13;1.75;;;;;;;20.08;100.00;96131.19;5070717;28;20637;-79
2023/07/31 06:02:14;;;;;;;8.18;2.03;;;;;;;20.07;100.00;96139.44;5068807;28;20028;-79
2023/07/31 06:04:53;;;;;;;7.80;2.45;;;;;;;19.99;100.00;96140.53;5056643;28;20024;-79
2023/07/31 06:07:26;;;;;;;5.63;1.80;;;;;;;19.97;100.00;96140.75;5070469;28;20028;-79
2023/07/31 06:09:51;;;;;;;5.68;1.77;;;;;;;20.05;100.00;96144.16;5053510;28;20044;-79
2023/07/31 06:12:18;;;;;;;6.15;2.15;;;;;;;20.33;100.00;96133.81;5069880;28;20032;-79
2023/07/31 06:14:44;;;;;;;5.35;1.65;;;;;;;19.97;100.00;96132.75;5051922;28;20050;-79
2023/07/31 06:17:09;;;;;;;9.18;2.33;;;;;;;20.24;100.00;96132.47;5049057;28;20562;-79
2023/07/31 06:19:35;;;;;;;4.32;1.85;;;;;;;19.98;100.00;96129.03;5069839;28;20020;-79
2023/07/31 06:22:02;;;;;;;5.68;1.52;;;;;;;20.17;100.00;96119.19;5069246;28;20024;-79
2023/07/31 06:24:30;;;;;;;8.70;2.55;;;;;;;20.27;100.00;96116.00;5052702;28;20048;-79
2023/07/31 06:27:06;;;;;;;6.07;2.40;;;;;;;20.33;100.00;96123.13;5070298;28;20086;-78
2023/07/31 06:29:35;;;;;;;5.88;2.03;;;;;;;20.68;100.00;96122.50;5036310;28;20047;-79
2023/07/31 06:32:08;;;;;;;4.65;2.03;;;;;;;20.46;100.00;96122.97;5069791;28;20587;-79
2023/07/31 06:34:46;;;;;;;4.68;1.83;;;;;;;20.53;100.00;96122.09;5065142;28;20028;-79
2023/07/31 06:37:21;;;;;;;5.95;1.90;;;;;;;20.79;100.00;96121.75;5052494;28;20046;-79
2023/07/31 06:40:05;;;;;;;5.88;1.88;;;;;;;20.78;100.00;96117.44;5069362;28;20036;-79
2023/07/31 06:42:31;;;;;;;5.97;1.58;;;;;;;21.59;100.00;96115.22;5053076;28;20032;-79
2023/07/31 06:45:00;;;;;;;6.55;2.33;;;;;;;21.35;100.00;96120.56;5048789;28;20402;-79
2023/07/31 06:47:26;;;;;;;5.95;2.00;;;;;;;21.90;100.00;96122.13;5069738;28;20082;-79
2023/07/31 06:49:51;;;;;;;4.65;1.63;;;;;;;22.50;100.00;96113.81;5063677;28;20032;-79
2023/07/31 06:52:17;;;;;;;5.05;1.38;;;;;;;22.77;100.00;96110.53;5048777;28;20033;-79
2023/07/31 06:54:43;;;;;;;5.53;1.83;;;;;;;23.25;100.00;96118.16;5049025;28;20020;-80
2023/07/31 06:57:08;;;;;;;5.65;1.98;;;;;;;23.28;100.00;96117.69;5049330;28;20059;-80
2023/07/31 06:59:34;;;;;;;6.03;2.15;;;;;;;23.74;100.00;96118.47;5070406;28;20360;-95
2023/07/31 07:01:59;;;;;;;4.30;1.70;;;;;;;23.84;100.00;96119.66;5049701;28;20522;-80
2023/07/31 07:04:30;;;;;;;3.83;1.17;;;;;;;23.85;100.00;96121.31;5068684;28;20721;-79
2023/07/31 07:06:55;;;;;;;5.80;1.98;;;;;;;24.21;98.56;96115.38;5064309;28;20033;-80
2023/07/31 07:09:21;;;;;;;5.40;1.58;;;;;;;25.08;93.91;96119.13;5060536;28;20029;-79
2023/07/31 07:11:46;;;;;;;5.40;1.67;;;;;;;23.73;100.00;96111.44;5050841;28;20533;-79
2023/07/31 07:14:12;;;;;;;3.25;1.50;;;;;;;23.88;100.00;96115.44;5060279;28;20090;-80
2023/07/31 07:16:40;;;;;;;4.20;1.75;;;;;;;24.63;95.47;96117.53;5057633;28;20021;-79
2023/07/31 07:19:07;;;;;;;6.30;1.83;;;;;;;24.44;100.00;96113.53;5065673;28;20032;-79
2023/07/31 07:21:41;;;;;;;4.32;1.70;;;;;;;23.36;100.00;96107.59;5065243;28;20021;-80
2023/07/31 07:24:06;;;;;;;5.32;1.80;;;;;;;24.91;94.95;96108.44;5051054;28;20051;-80
2023/07/31 07:26:32;;;;;;;4.53;1.58;;;;;;;25.12;91.62;96106.00;5055182;28;20025;-78
2023/07/31 07:29:02;;;;;;;7.07;1.88;;;;;;;25.55;88.89;96102.34;5047522;28;20040;-79
2023/07/31 07:31:28;;;;;;;5.38;2.03;;;;;;;25.34;86.53;96100.53;5047985;28;20097;-77
2023/07/31 07:33:54;;;;;;;3.53;1.60;;;;;;;25.85;80.67;96095.56;5051380;28;20106;-77
2023/07/31 07:36:19;;;;;;;7.03;1.83;;;;;;;25.88;82.23;96100.44;5059970;28;20041;-77
2023/07/31 07:38:45;;;;;;;6.00;2.13;;;;;;;24.55;89.66;96106.44;5051269;28;20024;-78
2023/07/31 07:41:12;;;;;;;5.35;1.77;;;;;;;24.42;92.07;96103.03;5050659;28;20512;-81
2023/07/31 07:43:39;;;;;;;3.92;1.50;;;;;;;24.85;89.22;96098.69;5064151;28;20825;-80
2023/07/31 07:46:05;;;;;;;5.32;1.60;;;;;;;25.24;88.47;96097.75;5047130;28;20031;-80
2023/07/31 07:48:30;;;;;;;5.53;1.85;;;;;;;24.24;90.92;96097.94;5051354;28;20028;-80
2023/07/31 07:50:56;;;;;;;6.18;1.80;;;;;;;24.75;87.56;96105.81;5059812;28;20021;-80
2023/07/31 07:53:21;;;;;;;5.07;1.85;;;;;;;24.89;88.16;96093.63;5050331;28;20403;-80
2023/07/31 07:55:50;;;;;;;6.05;2.17;;;;;;;25.59;84.91;96091.88;5054368;28;20033;-80
2023/07/31 07:58:15;;;;;;;4.88;1.63;;;;;;;25.06;85.20;96093.53;5052112;28;20430;-80
2023/07/31 08:00:59;;;;;;;4.55;1.98;;;;;;;24.53;87.36;96100.47;5066485;28;20031;-81
2023/07/31 08:03:25;;;;;;;6.93;2.15;;;;;;;25.48;86.58;96088.25;5056264;28;20040;-81
2023/07/31 08:05:50;;;;;;;6.03;1.55;;;;;;;24.88;90.29;96084.75;5042517;28;20035;-81
2023/07/31 08:08:17;;;;;;;6.53;2.22;;;;;;;25.05;87.45;96087.34;5059447;28;20039;-81
2023/07/31 08:10:50;;;;;;;5.18;1.70;;;;;;;25.58;83.85;96088.34;5054281;28;20054;-80
2023/07/31 08:13:15;;;;;;;8.00;2.50;;;;;;;25.25;87.62;96085.91;5063225;28;20024;-80
2023/07/31 08:15:42;;;;;;;8.10;2.13;;;;;;;25.56;86.55;96090.50;5048723;28;20071;-80
2023/07/31 08:18:08;;;;;;;6.97;2.13;;;;;;;26.13;84.07;96090.91;5065041;28;20261;-80
2023/07/31 08:20:34;;;;;;;10.85;3.47;;;;;;;26.12;83.58;96092.75;5068338;28;20436;-81
2023/07/31 08:23:00;;;;;;;13.18;6.47;;;;;;;27.12;76.85;96075.59;5050075;28;20016;-81
2023/07/31 08:25:26;;;;;;;7.38;2.22;;;;;;;27.37;75.56;96075.66;5049571;28;20036;-81
2023/07/31 08:27:55;;;;;;;7.40;2.50;;;;;;;26.92;74.41;96069.09;5063533;28;20016;-80
2023/07/31 08:30:21;;;;;;;7.10;2.28;;;;;;;26.70;78.29;96065.81;5060669;28;20036;-82
2023/07/31 08:32:47;;;;;;;6.05;1.88;;;;;;;27.11;75.11;96057.78;5050330;28;20027;-81
2023/07/31 08:35:13;;;;;;;5.25;2.05;;;;;;;27.60;73.09;96059.97;5069007;28;20069;-82
2023/07/31 08:37:38;;;;;;;6.93;2.35;;;;;;;27.79;72.95;96068.38;5050878;28;20508;-81
2023/07/31 08:40:05;;;;;;;6.65;2.30;;;;;;;26.26;77.38;96069.69;5068282;28;20036;-82
2023/07/31 08:42:31;;;;;;;8.20;2.20;;;;;;;25.84;84.39;96065.13;5045837;28;20048;-81
2023/07/31 08:45:15;;;;;;;5.88;2.03;;;;;;;26.71;77.68;96062.03;5046434;28;20035;-81
2023/07/31 08:47:46;;;;;;;7.32;2.20;;;;;;;27.57;73.02;96052.44;5067994;28;20050;-81
2023/07/31 08:50:17;;;;;;;6.15;2.40;;;;;;;27.98;68.60;96053.19;5067093;28;20032;-80
2023/07/31 08:52:43;;;;;;;7.57;2.22;;;;;;;27.97;64.46;96048.88;5061857;28;20032;-81
2023/07/31 08:55:10;;;;;;;6.13;2.30;;;;;;;27.21;71.30;96047.84;5060118;28;20811;-81
2023/07/31 08:57:37;;;;;;;6.90;2.35;;;;;;;27.64;69.89;96039.47;5066008;28;20016;-81
2023/07/31 09:00:09;;;;;;;7.28;2.38;;;;;;;28.54;61.17;96035.97;5045205;28;20028;-81
2023/07/31 09:02:42;;;;;;;5.40;1.92;;;;;;;28.34;66.08;96036.88;5059978;28;20052;-80
2023/07/31 09:05:11;;;;;;;6.75;2.50;;;;;;;28.69;62.24;96026.97;5047716;28;20047;-80
2023/07/31 09:07:40;;;;;;;6.43;2.10;;;;;;;28.67;60.72;96025.38;5050359;28;20021;-80
2023/07/31 09:10:06;;;;;;;3.58;1.88;;;;;;;28.35;61.65;96033.06;5046722;28;20016;-80
2023/07/31 09:12:31;;;;;;;6.60;1.92;;;;;;;27.98;65.46;96034.28;5050094;28;20434;-80
2023/07/31 09:14:58;;;;;;;5.55;2.25;;;;;;;28.49;60.54;96023.28;5065371;28;20132;-80
2023/07/31 09:17:36;;;;;;;7.25;2.50;;;;;;;29.42;59.07;96024.31;5054488;28;20052;-80
2023/07/31 09:20:21;;;;;;;7.93;2.33;;;;;;;28.77;58.04;96045.31;5051460;28;20021;-80
2023/07/31 09:22:50;;;;;;;6.60;1.98;;;;;;;29.94;56.98;96051.75;5060836;28;20074;-80
2023/07/31 09:25:24;;;;;;;8.10;2.47;;;;;;;29.50;58.07;96042.66;5056898;28;20034;-81
2023/07/31 09:27:53;;;;;;;9.60;2.45;;;;;;;28.75;57.59;96048.31;5054478;28;20025;-81
2023/07/31 09:30:46;;;;;;;6.80;2.42;;;;;;;27.74;58.78;96042.16;5064556;28;20037;-81
2023/07/31 09:33:12;;;;;;;4.07;1.90;;;;;;;27.42;61.73;96027.03;5069208;28;20016;-82
2023/07/31 09:35:40;;;;;;;8.65;2.70;;;;;;;28.00;59.42;96025.88;5044742;28;20064;-81
2023/07/31 09:38:11;;;;;;;6.90;2.33;;;;;;;28.46;59.11;96026.53;5065901;28;20028;-81
2023/07/31 09:40:39;;;;;;;3.50;1.80;;;;;;;29.20;56.04;96013.91;5062824;28;20062;-81
2023/07/31 09:43:13;;;;;;;5.68;2.60;;;;;;;29.30;54.11;96027.38;5057313;28;20051;-81
2023/07/31 09:45:56;;;;;;;6.47;2.28;;;;;;;29.31;52.98;96020.88;5055616;28;20020;-81
2023/07/31 09:48:25;;;;;;;6.88;2.58;;;;;;;29.63;51.14;96018.72;5061250;28;20654;-79
2023/07/31 09:50:51;;;;;;;8.68;2.83;;;;;;;28.42;54.82;96015.47;5043235;28;20029;-79
2023/07/31 09:53:30;;;;;;;5.53;2.33;;;;;;;28.49;57.07;96017.06;5062176;28;20402;-81
2023/07/31 09:56:32;;;;;;;5.15;2.35;;;;;;;28.41;55.04;96011.16;5074785;28;20039;-80
2023/07/31 09:58:58;;;;;;;5.65;2.40;;;;;;;27.88;58.18;96005.38;5061171;28;20032;-80
2023/07/31 10:01:26;;;;;;;5.72;2.42;;;;;;;27.88;59.65;95997.28;5058770;28;20111;-80
2023/07/31 10:03:54;;;;;;;6.95;1.80;;;;;;;28.43;55.06;96005.47;5049942;28;20061;-80
2023/07/31 10:06:20;;;;;;;5.93;2.20;;;;;;;28.54;53.53;96003.50;5065947;28;20147;-79
2023/07/31 10:08:49;;;;;;;6.28;2.60;;;;;;;29.74;52.66;95998.56;5043835;28;20111;-81
2023/07/31 10:11:16;;;;;;;5.70;2.28;;;;;;;28.67;55.16;95997.47;5069968;28;20035;-80
2023/07/31 10:13:42;;;;;;;7.40;2.50;;;;;;;27.60;56.45;96001.38;5052164;28;20039;-80
2023/07/31 10:16:09;;;;;;;6.82;2.40;;;;;;;27.36;58.97;95990.31;5071301;28;20052;-80
2023/07/31 10:18:36;;;;;;;5.70;2.22;;;;;;;28.13;60.14;95987.44;5053869;28;20028;-80
2023/07/31 10:21:01;;;;;;;8.32;3.30;;;;;;;28.18;58.43;95985.53;5065933;28;20024;-85
2023/07/31 10:23:28;;;;;;;6.43;2.20;;;;;;;27.57;56.71;95993.81;5069958;28;20032;-85
2023/07/31 10:25:55;;;;;;;7.97;2.50;;;;;;;27.13;59.01;95990.88;5063647;28;20078;-86
2023/07/31 10:28:21;;;;;;;7.10;2.28;;;;;;;28.01;56.87;95974.25;5039967;28;20025;-80
2023/07/31 10:30:49;;;;;;;5.85;2.75;;;;;;;27.82;56.99;95979.44;5051036;28;20057;-81
2023/07/31 10:33:16;;;;;;;8.15;2.65;;;;;;;26.87;58.70;95963.06;5045141;28;20057;-83
2023/07/31 10:35:41;;;;;;;5.65;2.05;;;;;;;26.96;61.09;95962.25;5044464;28;20147;-79
2023/07/31 10:38:12;;;;;;;6.47;2.10;;;;;;;26.77;60.04;95961.97;5049863;28;20097;-81
2023/07/31 10:40:38;;;;;;;6.78;2.47;;;;;;;26.72;61.42;95970.03;5053085;28;20757;-79
2023/07/31 10:43:05;;;;;;;5.57;2.17;;;;;;;27.27;58.81;95956.88;5061088;28;20079;-84
2023/07/31 10:45:30;;;;;;;7.18;2.30;;;;;;;27.53;59.49;95959.50;5069643;28;20462;-81
2023/07/31 10:48:05;;;;;;;6.05;2.55;;;;;;;28.68;54.67;95945.00;5052663;28;20059;-79
2023/07/31 10:50:36;;;;;;;7.88;2.63;;;;;;;28.92;54.25;95936.97;5069060;28;20066;-78
2023/07/31 10:53:03;;;;;;;4.43;1.80;;;;;;;26.98;57.06;95948.47;5070251;28;20021;-78
2023/07/31 10:55:43;;;;;;;7.88;3.40;;;;;;;28.18;57.71;95942.28;5051690;28;20086;-79
2023/07/31 10:58:23;;;;;;;5.72;2.50;;;;;;;28.31;56.60;95938.16;5064448;28;20028;-78
2023/07/31 11:00:56;;;;;;;7.40;2.38;;;;;;;29.05;52.71;95943.66;5063204;28;20025;-78
2023/07/31 11:03:40;;;;;;;6.55;2.33;;;;;;;28.96;52.50;95946.13;5067820;28;20055;-79
2023/07/31 11:06:09;;;;;;;5.70;2.20;;;;;;;29.03;52.58;95945.81;5052145;28;20024;-78
2023/07/31 11:08:41;;;;;;;7.15;1.95;;;;;;;30.02;52.28;95945.38;5035644;28;20498;-79
2023/07/31 11:11:09;;;;;;;10.68;2.33;;;;;;;29.65;48.50;95933.34;5037659;28;20020;-80
2023/07/31 11:13:51;;;;;;;4.90;2.33;;;;;;;29.00;50.88;95930.16;5051959;28;20028;-79
2023/07/31 11:16:19;;;;;;;5.93;2.20;;;;;;;29.74;49.24;95928.88;5056299;28;20021;-79
2023/07/31 11:18:47;;;;;;;8.00;2.90;;;;;;;30.14;50.94;95945.75;5062864;28;20040;-78
2023/07/31 11:21:24;;;;;;;7.35;2.40;;;;;;;28.70;49.36;95940.09;5056970;28;20028;-79
2023/07/31 11:23:57;;;;;;;5.53;1.98;;;;;;;29.96;47.36;95935.69;5044364;28;20032;-78
2023/07/31 11:26:25;;;;;;;7.22;2.17;;;;;;;30.97;48.19;95936.19;5046745;28;20901;-78
2023/07/31 11:28:51;;;;;;;7.20;2.42;;;;;;;29.95;48.29;95944.94;5065449;28;20032;-83
2023/07/31 11:31:20;;;;;;;6.28;2.42;;;;;;;29.08;50.19;95948.50;5045367;28;20025;-78
2023/07/31 11:33:46;;;;;;;5.88;2.20;;;;;;;29.03;50.51;95946.63;5041308;28;20039;-79